createdAt,value
2023-03-13T00:02:18.507Z,4.33
2023-03-13T00:04:46.339Z,4.37
2023-03-13T00:07:14.665Z,4.67
2023-03-13T00:09:42.450Z,4.77
2023-03-13T00:12:10.428Z,4.73
2023-03-13T00:14:38.384Z,4.83
2023-03-13T00:17:06.928Z,4.33
2023-03-13T00:19:36.068Z,4.23
2023-03-13T00:22:03.949Z,4.60
2023-03-13T00:24:31.743Z,4.63
2023-03-13T00:27:03.418Z,5.00
2023-03-13T00:29:31.412Z,4.57
2023-03-13T00:31:59.576Z,4.57
2023-03-13T00:34:30.347Z,4.43
2023-03-13T00:36:59.740Z,4.87
2023-03-13T00:39:27.636Z,4.77
2023-03-13T00:41:55.720Z,4.73
2023-03-13T00:44:23.439Z,3.93
2023-03-13T00:46:51.282Z,5.23
2023-03-13T00:49:19.615Z,4.30
2023-03-13T00:51:47.821Z,4.50
2023-03-13T00:54:17.098Z,4.57
2023-03-13T00:56:44.896Z,5.17
2023-03-13T00:59:15.016Z,4.93
2023-03-13T01:01:43.233Z,4.60
2023-03-13T01:04:11.976Z,4.70
2023-03-13T01:06:43.255Z,5.00
2023-03-13T01:09:13.698Z,5.17
2023-03-13T01:11:44.413Z,4.60
2023-03-13T01:14:14.302Z,4.60
2023-03-13T01:16:42.321Z,4.63
2023-03-13T01:19:13.138Z,4.67
2023-03-13T01:21:41.732Z,4.47
2023-03-13T01:24:09.917Z,4.90
2023-03-13T01:26:37.960Z,5.30
2023-03-13T01:29:07.399Z,5.50
2023-03-13T01:31:36.295Z,5.60
2023-03-13T01:34:04.925Z,5.67
2023-03-13T01:36:32.634Z,5.83
2023-03-13T01:39:01.279Z,6.33
2023-03-13T01:41:29.875Z,6.57
2023-03-13T01:43:58.637Z,7.73
2023-03-13T01:46:28.475Z,7.37
2023-03-13T01:48:59.179Z,7.43
2023-03-13T01:51:29.137Z,9.43
2023-03-13T01:54:00.007Z,7.90
2023-03-13T01:56:30.504Z,8.10
2023-03-13T01:58:59.976Z,8.33
2023-03-13T02:01:29.840Z,8.17
2023-03-13T02:03:58.396Z,7.00
2023-03-13T02:06:27.606Z,8.20
2023-03-13T02:08:57.407Z,7.80
2023-03-13T02:11:29.443Z,9.23
2023-03-13T02:13:57.683Z,8.40
2023-03-13T02:16:25.502Z,9.07
2023-03-13T02:18:55.032Z,8.57
2023-03-13T02:21:28.946Z,8.10
2023-03-13T02:24:02.928Z,6.60
2023-03-13T02:26:32.404Z,6.70
2023-03-13T02:29:00.197Z,7.23
2023-03-13T02:31:28.654Z,7.67
2023-03-13T02:33:57.542Z,7.43
2023-03-13T02:36:25.450Z,7.40
2023-03-13T02:38:56.607Z,7.73
2023-03-13T02:41:25.928Z,6.43
2023-03-13T02:43:55.372Z,7.50
2023-03-13T02:46:23.217Z,8.03
2023-03-13T02:48:52.355Z,8.27
2023-03-13T02:51:22.257Z,7.77
2023-03-13T02:53:50.692Z,8.57
2023-03-13T02:56:20.479Z,10.10
2023-03-13T02:58:50.395Z,9.40
2023-03-13T03:01:20.329Z,10.50
2023-03-13T03:03:48.881Z,12.20
2023-03-13T03:06:16.625Z,11.53
2023-03-13T03:08:45.220Z,11.73
2023-03-13T03:11:13.227Z,12.07
2023-03-13T03:13:41.023Z,12.23
2023-03-13T03:16:09.821Z,11.73
2023-03-13T03:18:40.018Z,11.50
2023-03-13T03:21:08.326Z,11.47
2023-03-13T03:23:36.807Z,10.80
2023-03-13T03:26:05.247Z,12.13
2023-03-13T03:28:33.445Z,12.57
2023-03-13T03:31:05.364Z,12.43
2023-03-13T03:33:33.793Z,12.77
2023-03-13T03:36:03.714Z,12.03
2023-03-13T03:38:31.473Z,10.97
2023-03-13T03:40:59.218Z,11.93
2023-03-13T03:43:27.071Z,12.10
2023-03-13T03:45:55.315Z,12.30
2023-03-13T03:48:23.027Z,12.43
2023-03-13T03:50:50.745Z,12.90
2023-03-13T03:53:20.162Z,10.93
2023-03-13T03:55:47.968Z,12.23
2023-03-13T03:58:15.722Z,11.83
2023-03-13T04:00:44.830Z,11.13
2023-03-13T04:03:12.987Z,11.00
2023-03-13T04:05:41.347Z,12.00
2023-03-13T04:08:09.674Z,11.20
2023-03-13T04:10:38.819Z,11.37
2023-03-13T04:13:06.664Z,11.93
2023-03-13T04:15:38.443Z,10.43
2023-03-13T04:18:06.737Z,9.10
2023-03-13T04:20:34.725Z,9.37
2023-03-13T04:23:02.729Z,7.00
2023-03-13T04:25:30.816Z,7.20
2023-03-13T04:28:00.674Z,6.70
2023-03-13T04:30:28.832Z,5.83
2023-03-13T04:32:56.880Z,6.03
2023-03-13T04:35:24.690Z,5.60
2023-03-13T04:37:52.691Z,5.17
2023-03-13T04:40:20.566Z,4.97
2023-03-13T04:42:49.982Z,4.40
2023-03-13T04:45:19.309Z,4.20
2023-03-13T04:47:47.491Z,4.40
2023-03-13T04:50:15.586Z,4.87
2023-03-13T04:52:43.669Z,4.60
2023-03-13T04:55:11.441Z,5.30
2023-03-13T04:57:39.178Z,5.83
2023-03-13T05:00:08.699Z,5.07
2023-03-13T05:02:38.568Z,5.10
2023-03-13T05:05:07.032Z,4.60
2023-03-13T05:07:35.124Z,5.00
2023-03-13T05:10:03.221Z,5.20
2023-03-13T05:12:30.901Z,4.27
2023-03-13T05:14:58.705Z,5.17
2023-03-13T05:17:27.417Z,5.37
2023-03-13T05:19:56.776Z,5.43
2023-03-13T05:22:24.676Z,5.43
2023-03-13T05:24:52.682Z,5.77
2023-03-13T05:27:20.870Z,5.63
2023-03-13T05:29:48.600Z,6.23
2023-03-13T05:32:16.560Z,6.13
2023-03-13T05:34:44.278Z,7.30
2023-03-13T05:37:13.441Z,7.13
2023-03-13T05:39:41.781Z,8.03
2023-03-13T05:42:09.705Z,7.30
2023-03-13T05:44:37.481Z,7.27
2023-03-13T05:47:05.481Z,7.60
2023-03-13T05:49:33.541Z,7.50
2023-03-13T05:52:01.352Z,7.80
2023-03-13T05:54:30.728Z,8.20
2023-03-13T05:56:58.765Z,8.07
2023-03-13T05:59:27.846Z,9.80
2023-03-13T06:01:56.036Z,10.80
2023-03-13T06:04:23.905Z,12.63
2023-03-13T06:06:52.234Z,14.43
2023-03-13T06:09:20.096Z,15.87
2023-03-13T06:11:49.514Z,14.63
2023-03-13T06:14:17.273Z,13.70
2023-03-13T06:16:45.527Z,12.60
2023-03-13T06:19:13.630Z,14.63
2023-03-13T06:21:41.665Z,13.70
2023-03-13T06:24:09.701Z,14.20
2023-03-13T06:26:38.960Z,13.10
2023-03-13T06:29:08.132Z,14.17
2023-03-13T06:31:37.045Z,13.40
2023-03-13T06:34:04.872Z,11.80
2023-03-13T06:36:32.840Z,12.87
2023-03-13T06:39:00.734Z,11.77
2023-03-13T06:41:28.919Z,11.13
2023-03-13T06:43:56.555Z,12.97
2023-03-13T06:46:26.237Z,12.37
2023-03-13T06:48:54.313Z,12.23
2023-03-13T06:51:26.685Z,12.40
2023-03-13T06:53:54.423Z,12.30
2023-03-13T06:56:22.613Z,12.20
2023-03-13T06:58:51.024Z,10.93
2023-03-13T07:01:19.885Z,12.27
2023-03-13T07:03:50.034Z,11.70
2023-03-13T07:06:18.736Z,11.03
2023-03-13T07:08:46.787Z,10.57
2023-03-13T07:11:15.101Z,11.47
2023-03-13T07:13:42.869Z,11.43
2023-03-13T07:16:19.169Z,11.03
2023-03-13T07:18:48.153Z,10.63
2023-03-13T07:21:17.478Z,11.37
2023-03-13T07:23:45.358Z,11.27
2023-03-13T07:26:14.139Z,12.13
2023-03-13T07:28:42.600Z,11.00
2023-03-13T07:31:12.145Z,10.67
2023-03-13T07:33:42.477Z,10.50
2023-03-13T07:36:10.362Z,10.10
2023-03-13T07:38:39.817Z,11.27
2023-03-13T07:41:08.807Z,10.03
2023-03-13T07:43:36.607Z,10.50
2023-03-13T07:46:06.195Z,11.47
2023-03-13T07:48:34.834Z,10.87
2023-03-13T07:51:03.044Z,10.53
2023-03-13T07:53:31.341Z,9.97
2023-03-13T07:56:01.483Z,10.57
2023-03-13T07:58:30.136Z,11.27
2023-03-13T08:01:01.432Z,11.23
2023-03-13T08:03:31.219Z,10.50
2023-03-13T08:06:00.304Z,11.27
2023-03-13T08:08:28.447Z,10.90
2023-03-13T08:11:06.611Z,10.00
2023-03-13T08:13:35.427Z,10.03
2023-03-13T08:16:05.306Z,10.17
2023-03-13T08:18:35.093Z,9.70
2023-03-13T08:21:04.091Z,9.03
2023-03-13T08:23:31.905Z,9.63
2023-03-13T08:26:06.944Z,8.73
2023-03-13T08:28:34.816Z,9.57
2023-03-13T08:31:08.084Z,9.23
2023-03-13T08:33:36.345Z,8.70
2023-03-13T08:36:15.252Z,9.10
2023-03-13T08:38:46.013Z,10.23
2023-03-13T08:41:16.625Z,14.50
2023-03-13T08:43:44.790Z,8.43
2023-03-13T08:46:12.635Z,8.40
2023-03-13T08:48:40.382Z,8.10
2023-03-13T08:51:10.536Z,7.80
2023-03-13T08:53:38.586Z,9.10
2023-03-13T08:56:07.250Z,7.80
2023-03-13T08:58:36.709Z,8.43
2023-03-13T09:01:05.050Z,8.97
2023-03-13T09:03:33.079Z,10.57
2023-03-13T09:06:01.416Z,9.73
2023-03-13T09:08:30.261Z,8.77
2023-03-13T09:10:58.983Z,9.07
2023-03-13T09:13:27.962Z,9.43
2023-03-13T09:15:58.924Z,9.20
2023-03-13T09:18:27.428Z,8.80
2023-03-13T09:20:55.512Z,9.30
2023-03-13T09:23:24.095Z,9.17
2023-03-13T09:25:54.079Z,9.13
2023-03-13T09:28:22.548Z,9.20
2023-03-13T09:30:50.738Z,8.97
2023-03-13T09:33:20.298Z,8.53
2023-03-13T09:35:51.301Z,8.27
2023-03-13T09:38:19.870Z,8.27
2023-03-13T09:40:59.748Z,8.40
2023-03-13T09:43:38.842Z,8.10
2023-03-13T09:46:09.197Z,7.37
2023-03-13T09:48:40.356Z,7.77
2023-03-13T09:51:12.492Z,8.37
2023-03-13T09:53:43.646Z,9.07
2023-03-13T09:56:16.688Z,8.33
2023-03-13T09:58:48.821Z,9.17
2023-03-13T10:01:19.323Z,8.33
2023-03-13T10:03:53.355Z,9.03
2023-03-13T10:06:22.127Z,8.33
2023-03-13T10:08:49.899Z,8.47
2023-03-13T10:11:25.406Z,7.50
2023-03-13T10:13:55.308Z,8.83
2023-03-13T10:16:25.698Z,8.70
2023-03-13T10:18:56.528Z,9.47
2023-03-13T10:21:26.300Z,9.53
2023-03-13T10:23:57.316Z,9.67
2023-03-13T10:26:29.521Z,9.40
2023-03-13T10:29:02.797Z,10.13
2023-03-13T10:31:33.175Z,10.27
2023-03-13T10:34:09.123Z,9.90
2023-03-13T10:36:41.184Z,9.93
2023-03-13T10:39:09.757Z,8.17
2023-03-13T10:41:38.820Z,9.70
2023-03-13T10:44:08.516Z,8.20
2023-03-13T10:46:41.533Z,8.30
2023-03-13T10:49:16.208Z,8.50
2023-03-13T10:51:50.059Z,7.33
2023-03-13T10:54:22.892Z,8.57
2023-03-13T10:56:50.965Z,8.43
2023-03-13T10:59:22.302Z,8.00
2023-03-13T11:01:50.368Z,8.43
2023-03-13T11:04:29.655Z,7.93
2023-03-13T11:07:00.343Z,7.97
2023-03-13T11:09:28.106Z,7.93
2023-03-13T11:11:57.068Z,8.33
2023-03-13T11:14:25.568Z,7.97
2023-03-13T11:16:56.006Z,8.57
2023-03-13T11:19:30.575Z,8.10
2023-03-13T11:22:07.119Z,5.60
2023-03-13T11:24:40.758Z,7.20
2023-03-13T11:27:16.423Z,8.20
2023-03-13T11:29:50.464Z,8.17
2023-03-13T11:32:24.103Z,7.10
2023-03-13T11:34:55.294Z,7.90
2023-03-13T11:37:23.547Z,7.90
2023-03-13T11:39:55.440Z,7.90
2023-03-13T11:42:37.274Z,8.57
2023-03-13T11:45:08.734Z,7.43
2023-03-13T11:47:42.667Z,7.90
2023-03-13T11:50:25.580Z,8.30
2023-03-13T11:53:00.520Z,7.43
2023-03-13T11:55:36.009Z,7.90
2023-03-13T11:58:12.691Z,7.33
2023-03-13T12:00:43.739Z,7.93
2023-03-13T12:03:16.135Z,7.50
2023-03-13T12:05:46.937Z,8.07
2023-03-13T12:08:21.254Z,7.93
2023-03-13T12:10:53.774Z,7.47
2023-03-13T12:13:28.363Z,7.90
2023-03-13T12:15:58.824Z,6.57
2023-03-13T12:18:31.037Z,7.00
2023-03-13T12:21:03.104Z,6.93
2023-03-13T12:23:37.463Z,7.17
2023-03-13T12:26:07.553Z,7.20
2023-03-13T12:28:38.562Z,6.53
2023-03-13T12:31:10.956Z,6.63
2023-03-13T12:33:41.606Z,8.03
2023-03-13T12:36:13.901Z,7.40
2023-03-13T12:38:45.525Z,5.60
2023-03-13T12:41:19.163Z,6.47
2023-03-13T12:44:04.296Z,6.50
2023-03-13T12:46:40.371Z,6.30
2023-03-13T12:49:14.253Z,6.20
2023-03-13T12:51:50.168Z,7.10
2023-03-13T12:54:29.256Z,7.10
2023-03-13T12:57:04.361Z,6.27
2023-03-13T12:59:34.138Z,6.13
2023-03-13T13:02:04.434Z,5.37
2023-03-13T13:04:33.562Z,5.93
2023-03-13T13:07:03.286Z,6.67
2023-03-13T13:09:33.467Z,7.67
2023-03-13T13:12:05.629Z,5.73
2023-03-13T13:14:58.191Z,7.17
2023-03-13T13:17:36.232Z,7.77
2023-03-13T13:20:18.756Z,8.60
2023-03-13T13:22:48.383Z,8.27
2023-03-13T13:25:32.144Z,8.10
2023-03-13T13:28:19.383Z,8.93
2023-03-13T13:30:47.555Z,9.07
2023-03-13T13:33:33.174Z,9.30
2023-03-13T13:36:21.236Z,8.57
2023-03-13T13:38:49.392Z,8.80
2023-03-13T13:41:35.473Z,8.87
2023-03-13T13:44:21.761Z,8.80
2023-03-13T13:46:51.192Z,8.70
2023-03-13T13:49:20.381Z,8.73
2023-03-13T13:52:12.362Z,8.50
2023-03-13T13:54:55.150Z,9.90
2023-03-13T13:57:24.421Z,9.27
2023-03-13T13:59:53.800Z,9.67
2023-03-13T14:02:27.590Z,9.77
2023-03-13T14:04:57.386Z,8.43
2023-03-13T14:07:27.200Z,7.93
2023-03-13T14:09:59.461Z,7.27
2023-03-13T14:12:28.014Z,8.80
2023-03-13T14:15:09.112Z,8.00
2023-03-13T14:17:43.560Z,7.53
2023-03-13T14:20:19.609Z,8.47
2023-03-13T14:22:48.210Z,7.47
2023-03-13T14:25:16.145Z,7.97
2023-03-13T14:27:44.300Z,8.57
2023-03-13T14:30:13.041Z,8.07
2023-03-13T14:32:42.284Z,9.50
2023-03-13T14:35:10.943Z,7.00
2023-03-13T14:37:42.497Z,7.07
2023-03-13T14:40:11.727Z,6.70
2023-03-13T14:42:40.181Z,7.30
2023-03-13T14:45:14.898Z,6.57
2023-03-13T14:47:45.252Z,7.07
2023-03-13T14:50:15.271Z,6.03
2023-03-13T14:52:46.939Z,6.80
2023-03-13T14:55:28.037Z,7.30
2023-03-13T14:57:56.441Z,6.97
2023-03-13T15:00:30.955Z,6.43
2023-03-13T15:03:21.407Z,7.87
2023-03-13T15:05:50.251Z,7.23
2023-03-13T15:08:20.251Z,6.73
2023-03-13T15:10:48.533Z,6.97
2023-03-13T15:13:19.095Z,6.63
2023-03-13T15:15:48.944Z,6.87
2023-03-13T15:18:20.396Z,7.23
2023-03-13T15:20:51.582Z,6.93
2023-03-13T15:23:19.809Z,6.83
2023-03-13T15:25:47.978Z,6.50
2023-03-13T15:28:16.634Z,8.67
2023-03-13T15:30:45.296Z,8.77
2023-03-13T15:33:14.975Z,8.70
2023-03-13T15:35:44.659Z,8.97
2023-03-13T15:38:14.310Z,8.57
2023-03-13T15:40:42.284Z,9.00
2023-03-13T15:43:10.435Z,8.20
2023-03-13T15:45:39.167Z,8.83
2023-03-13T15:48:12.537Z,10.03
2023-03-13T15:50:40.150Z,10.40
2023-03-13T15:53:12.535Z,10.13
2023-03-13T15:55:40.423Z,11.00
2023-03-13T15:58:11.090Z,10.23
2023-03-13T16:00:38.878Z,10.00
2023-03-13T16:03:07.342Z,8.93
2023-03-13T16:05:35.127Z,9.67
2023-03-13T16:08:03.033Z,10.80
2023-03-13T16:10:33.262Z,10.90
2023-03-13T16:13:00.933Z,10.13
2023-03-13T16:15:28.864Z,10.40
2023-03-13T16:17:56.897Z,10.33
2023-03-13T16:20:26.491Z,11.17
2023-03-13T16:22:54.675Z,11.00
2023-03-13T16:25:22.813Z,11.67
2023-03-13T16:27:53.631Z,11.20
2023-03-13T16:30:24.284Z,10.47
2023-03-13T16:32:52.268Z,11.07
2023-03-13T16:35:20.743Z,10.93
2023-03-13T16:37:48.636Z,10.40
2023-03-13T16:40:17.836Z,11.43
2023-03-13T16:42:46.576Z,10.20
2023-03-13T16:45:16.002Z,10.63
2023-03-13T16:47:44.471Z,13.60
2023-03-13T16:50:15.848Z,10.47
2023-03-13T16:52:43.796Z,12.63
2023-03-13T16:55:11.814Z,14.23
2023-03-13T16:57:39.667Z,14.33
2023-03-13T17:00:15.412Z,14.23
2023-03-13T17:02:44.743Z,17.80
2023-03-13T17:05:15.980Z,15.80
2023-03-13T17:07:45.029Z,16.80
2023-03-13T17:10:17.333Z,18.40
2023-03-13T17:12:45.133Z,16.10
2023-03-13T17:15:13.153Z,16.30
2023-03-13T17:17:41.143Z,14.70
2023-03-13T17:20:14.436Z,20.67
2023-03-13T17:22:42.175Z,18.17
2023-03-13T17:25:11.353Z,17.67
2023-03-13T17:27:42.148Z,18.83
2023-03-13T17:30:18.513Z,18.90
2023-03-13T17:32:46.591Z,18.73
2023-03-13T17:35:16.185Z,18.37
2023-03-13T17:37:45.692Z,16.53
2023-03-13T17:40:24.853Z,13.23
2023-03-13T17:42:52.757Z,14.53
2023-03-13T17:45:21.147Z,12.87
2023-03-13T17:47:50.471Z,12.77
2023-03-13T17:50:20.833Z,14.63
2023-03-13T17:52:48.670Z,12.60
2023-03-13T17:55:16.752Z,12.60
2023-03-13T17:57:45.015Z,11.27
2023-03-13T18:00:23.183Z,10.30
2023-03-13T18:02:51.108Z,10.87
2023-03-13T18:05:20.413Z,11.53
2023-03-13T18:07:48.352Z,10.97
2023-03-13T18:10:20.764Z,11.20
2023-03-13T18:12:48.773Z,10.53
2023-03-13T18:15:16.747Z,10.60
2023-03-13T18:17:44.601Z,9.50
2023-03-13T18:20:15.662Z,9.07
2023-03-13T18:22:44.898Z,9.30
2023-03-13T18:25:12.820Z,9.23
2023-03-13T18:27:41.952Z,7.67
2023-03-13T18:30:18.039Z,8.13
2023-03-13T18:32:46.408Z,7.83
2023-03-13T18:35:15.172Z,8.67
2023-03-13T18:37:45.817Z,7.40
2023-03-13T18:40:20.086Z,6.87
2023-03-13T18:42:48.083Z,6.70
2023-03-13T18:45:16.782Z,7.13
2023-03-13T18:47:44.823Z,6.77
2023-03-13T18:50:20.559Z,7.00
2023-03-13T18:52:49.708Z,6.33
2023-03-13T18:55:17.865Z,5.83
2023-03-13T18:57:45.898Z,5.40
2023-03-13T19:00:16.247Z,4.73
2023-03-13T19:02:44.674Z,6.17
2023-03-13T19:05:13.003Z,5.33
2023-03-13T19:07:40.771Z,5.50
2023-03-13T19:10:18.227Z,6.80
2023-03-13T19:12:46.051Z,7.27
2023-03-13T19:15:14.897Z,8.43
2023-03-13T19:17:43.689Z,12.43
2023-03-13T19:20:14.853Z,9.93
2023-03-13T19:22:43.093Z,9.93
2023-03-13T19:25:11.904Z,10.93
2023-03-13T19:27:41.410Z,9.37
2023-03-13T19:30:16.202Z,7.57
2023-03-13T19:32:44.137Z,7.50
2023-03-13T19:35:13.458Z,8.60
2023-03-13T19:37:41.764Z,8.40
2023-03-13T19:40:16.323Z,7.83
2023-03-13T19:42:45.636Z,8.13
2023-03-13T19:45:14.978Z,7.93
2023-03-13T19:47:43.096Z,7.40
2023-03-13T19:50:16.612Z,8.03
2023-03-13T19:52:45.814Z,11.20
2023-03-13T19:55:14.001Z,10.97
2023-03-13T19:57:41.746Z,9.77
2023-03-13T20:00:17.899Z,8.03
2023-03-13T20:02:45.952Z,10.20
2023-03-13T20:05:13.789Z,7.93
2023-03-13T20:07:41.807Z,6.77
2023-03-13T20:10:09.740Z,6.97
2023-03-13T20:12:37.864Z,6.57
2023-03-13T20:15:06.776Z,5.23
2023-03-13T20:17:36.139Z,5.67
2023-03-13T20:20:08.472Z,6.10
2023-03-13T20:22:36.561Z,5.90
2023-03-13T20:25:04.727Z,5.77
2023-03-13T20:27:32.465Z,7.50
2023-03-13T20:30:00.966Z,10.27
2023-03-13T20:32:28.858Z,11.67
2023-03-13T20:34:58.207Z,9.47
2023-03-13T20:37:27.133Z,6.93
2023-03-13T20:39:55.277Z,8.07
2023-03-13T20:42:23.362Z,7.63
2023-03-13T20:44:51.221Z,7.83
2023-03-13T20:47:19.823Z,9.57
2023-03-13T20:49:47.577Z,6.87
2023-03-13T20:52:17.003Z,6.90
2023-03-13T20:54:44.756Z,8.97
2023-03-13T20:57:12.490Z,8.17
2023-03-13T20:59:41.321Z,6.17
2023-03-13T21:02:10.009Z,5.43
2023-03-13T21:04:37.962Z,5.57
2023-03-13T21:07:05.923Z,6.20
2023-03-13T21:09:35.597Z,5.60
2023-03-13T21:12:03.753Z,5.53
2023-03-13T21:14:33.621Z,6.47
2023-03-13T21:17:02.596Z,6.63
2023-03-13T21:19:34.301Z,7.33
2023-03-13T21:22:03.619Z,7.30
2023-03-13T21:24:31.411Z,8.80
2023-03-13T21:27:02.943Z,10.80
2023-03-13T21:29:31.148Z,10.60
2023-03-13T21:31:59.802Z,10.10
2023-03-13T21:34:27.582Z,8.60
2023-03-13T21:36:55.601Z,9.13
2023-03-13T21:39:23.879Z,9.40
2023-03-13T21:41:53.975Z,10.83
2023-03-13T21:44:23.007Z,11.13
2023-03-13T21:46:52.170Z,8.60
2023-03-13T21:49:19.909Z,8.10
2023-03-13T21:51:47.738Z,12.67
2023-03-13T21:54:15.428Z,12.50
2023-03-13T21:56:43.638Z,13.37
2023-03-13T21:59:12.935Z,14.73
2023-03-13T22:01:42.500Z,12.63
2023-03-13T22:04:10.366Z,13.47
2023-03-13T22:06:38.607Z,11.57
2023-03-13T22:09:07.936Z,12.40
2023-03-13T22:11:36.439Z,11.73
2023-03-13T22:14:04.138Z,15.30
2023-03-13T22:16:32.174Z,16.63
2023-03-13T22:19:01.553Z,15.73
2023-03-13T22:21:29.430Z,14.93
2023-03-13T22:23:57.158Z,14.73
2023-03-13T22:26:24.986Z,13.67
2023-03-13T22:28:54.391Z,10.27
2023-03-13T22:31:22.257Z,10.23
2023-03-13T22:33:50.112Z,8.50
2023-03-13T22:36:19.811Z,12.10
2023-03-13T22:38:48.408Z,13.73
2023-03-13T22:41:18.123Z,14.27
2023-03-13T22:43:46.380Z,10.33
2023-03-13T22:46:14.401Z,11.03
2023-03-13T22:48:42.364Z,10.57
2023-03-13T22:51:10.876Z,9.97
2023-03-13T22:53:41.147Z,10.93
2023-03-13T22:56:10.682Z,10.67
2023-03-13T22:58:38.891Z,9.87
2023-03-13T23:01:07.761Z,9.07
2023-03-13T23:03:35.630Z,10.47
2023-03-13T23:06:05.856Z,12.13
2023-03-13T23:08:35.863Z,12.63
2023-03-13T23:11:05.310Z,12.67
2023-03-13T23:13:33.289Z,8.63
2023-03-13T23:16:02.013Z,7.63
2023-03-13T23:18:32.625Z,8.77
2023-03-13T23:21:00.537Z,8.30
2023-03-13T23:23:28.379Z,8.03
2023-03-13T23:25:56.323Z,10.00
2023-03-13T23:28:25.496Z,10.20
2023-03-13T23:30:53.703Z,8.67
2023-03-13T23:33:21.444Z,9.10
2023-03-13T23:35:49.353Z,8.47
2023-03-13T23:38:18.737Z,8.73
2023-03-13T23:40:46.471Z,8.13
2023-03-13T23:43:14.309Z,7.27
2023-03-13T23:45:43.468Z,6.97
2023-03-13T23:48:11.452Z,6.47
2023-03-13T23:50:39.420Z,5.97
2023-03-13T23:53:07.335Z,6.77
2023-03-13T23:55:35.122Z,8.50
2023-03-13T23:58:02.867Z,10.00
